sensor_id;sensor_type;location;lat;lon;timestamp;temperature;humidity
19348;DHT22;9810;52.480;9.806;2022-10-31T00:00:44;12.00;99.90
19348;DHT22;9810;52.480;9.806;2022-10-31T00:03:11;11.90;99.90
19348;DHT22;9810;52.480;9.806;2022-10-31T00:05:41;12.10;99.90
19348;DHT22;9810;52.480;9.806;2022-10-31T00:08:10;12.30;99.90
19348;DHT22;9810;52.480;9.806;2022-10-31T00:10:38;12.10;99.90
19348;DHT22;9810;52.480;9.806;2022-10-31T00:13:05;12.30;99.90
19348;DHT22;9810;52.480;9.806;2022-10-31T00:15:33;12.30;99.90
19348;DHT22;9810;52.480;9.806;2022-10-31T00:18:01;12.30;99.90
19348;DHT22;9810;52.480;9.806;2022-10-31T00:20:28;12.20;99.90
19348;DHT22;9810;52.480;9.806;2022-10-31T00:22:57;12.30;99.90
19348;DHT22;9810;52.480;9.806;2022-10-31T00:25:28;12.40;99.90
19348;DHT22;9810;52.480;9.806;2022-10-31T00:27:55;12.50;99.90
19348;DHT22;9810;52.480;9.806;2022-10-31T00:30:23;12.60;99.90
19348;DHT22;9810;52.480;9.806;2022-10-31T00:32:50;12.80;99.90
19348;DHT22;9810;52.480;9.806;2022-10-31T00:35:17;12.80;99.90
19348;DHT22;9810;52.480;9.806;2022-10-31T00:37:45;12.80;99.90
19348;DHT22;9810;52.480;9.806;2022-10-31T00:40:11;12.90;99.90
19348;DHT22;9810;52.480;9.806;2022-10-31T00:42:40;12.80;99.90
19348;DHT22;9810;52.480;9.806;2022-10-31T00:45:09;12.80;99.90
19348;DHT22;9810;52.480;9.806;2022-10-31T00:47:36;12.90;99.90
19348;DHT22;9810;52.480;9.806;2022-10-31T00:50:04;13.00;99.90
19348;DHT22;9810;52.480;9.806;2022-10-31T00:52:31;13.10;99.90
19348;DHT22;9810;52.480;9.806;2022-10-31T00:54:59;13.20;99.90
19348;DHT22;9810;52.480;9.806;2022-10-31T00:57:26;13.10;99.90
19348;DHT22;9810;52.480;9.806;2022-10-31T00:59:57;13.10;99.90
19348;DHT22;9810;52.480;9.806;2022-10-31T01:02:24;13.30;99.90
19348;DHT22;9810;52.480;9.806;2022-10-31T01:04:52;13.30;99.90
19348;DHT22;9810;52.480;9.806;2022-10-31T01:07:19;13.50;99.90
19348;DHT22;9810;52.480;9.806;2022-10-31T01:09:46;13.40;99.90
19348;DHT22;9810;52.480;9.806;2022-10-31T01:12:14;13.30;99.90
19348;DHT22;9810;52.480;9.806;2022-10-31T01:14:43;13.30;99.90
19348;DHT22;9810;52.480;9.806;2022-10-31T01:17:12;13.30;99.90
19348;DHT22;9810;52.480;9.806;2022-10-31T01:19:39;13.30;99.90
19348;DHT22;9810;52.480;9.806;2022-10-31T01:22:06;13.40;99.90
19348;DHT22;9810;52.480;9.806;2022-10-31T01:24:33;13.50;99.90
19348;DHT22;9810;52.480;9.806;2022-10-31T01:27:01;13.40;99.90
19348;DHT22;9810;52.480;9.806;2022-10-31T01:29:28;13.60;99.90
19348;DHT22;9810;52.480;9.806;2022-10-31T01:31:55;13.70;99.90
19348;DHT22;9810;52.480;9.806;2022-10-31T01:34:24;13.70;99.90
19348;DHT22;9810;52.480;9.806;2022-10-31T01:36:51;13.80;99.90
19348;DHT22;9810;52.480;9.806;2022-10-31T01:39:19;13.70;99.90
19348;DHT22;9810;52.480;9.806;2022-10-31T01:41:48;13.80;99.90
19348;DHT22;9810;52.480;9.806;2022-10-31T01:44:50;13.90;99.90
19348;DHT22;9810;52.480;9.806;2022-10-31T01:47:21;13.90;99.90
19348;DHT22;9810;52.480;9.806;2022-10-31T01:49:53;13.90;99.90
19348;DHT22;9810;52.480;9.806;2022-10-31T01:52:25;13.70;99.90
19348;DHT22;9810;52.480;9.806;2022-10-31T01:54:58;13.70;99.90
19348;DHT22;9810;52.480;9.806;2022-10-31T01:57:27;13.70;99.90
19348;DHT22;9810;52.480;9.806;2022-10-31T01:59:59;13.60;99.90
19348;DHT22;9810;52.480;9.806;2022-10-31T02:02:29;13.50;99.90
19348;DHT22;9810;52.480;9.806;2022-10-31T02:05:00;13.60;99.90
19348;DHT22;9810;52.480;9.806;2022-10-31T02:07:33;13.60;99.90
19348;DHT22;9810;52.480;9.806;2022-10-31T02:10:04;13.60;99.90
19348;DHT22;9810;52.480;9.806;2022-10-31T02:12:31;13.50;99.90
19348;DHT22;9810;52.480;9.806;2022-10-31T02:15:00;13.50;99.90
19348;DHT22;9810;52.480;9.806;2022-10-31T02:17:29;13.40;99.90
19348;DHT22;9810;52.480;9.806;2022-10-31T02:20:05;13.60;99.90
19348;DHT22;9810;52.480;9.806;2022-10-31T02:22:41;13.60;99.90
19348;DHT22;9810;52.480;9.806;2022-10-31T02:25:23;13.50;99.90
19348;DHT22;9810;52.480;9.806;2022-10-31T02:28:17;13.60;99.90
19348;DHT22;9810;52.480;9.806;2022-10-31T02:31:02;13.40;99.90
19348;DHT22;9810;52.480;9.806;2022-10-31T02:33:38;13.40;99.90
19348;DHT22;9810;52.480;9.806;2022-10-31T02:36:11;13.40;99.90
19348;DHT22;9810;52.480;9.806;2022-10-31T02:38:50;13.30;99.90
19348;DHT22;9810;52.480;9.806;2022-10-31T02:41:24;13.40;99.90
19348;DHT22;9810;52.480;9.806;2022-10-31T02:44:00;13.40;99.90
19348;DHT22;9810;52.480;9.806;2022-10-31T02:46:35;13.30;99.90
19348;DHT22;9810;52.480;9.806;2022-10-31T02:49:10;13.20;99.90
19348;DHT22;9810;52.480;9.806;2022-10-31T02:51:39;13.00;99.90
19348;DHT22;9810;52.480;9.806;2022-10-31T02:54:19;13.00;99.90
19348;DHT22;9810;52.480;9.806;2022-10-31T02:56:47;12.80;99.90
19348;DHT22;9810;52.480;9.806;2022-10-31T02:59:16;12.80;99.90
19348;DHT22;9810;52.480;9.806;2022-10-31T03:01:54;12.60;99.90
19348;DHT22;9810;52.480;9.806;2022-10-31T03:04:36;12.50;99.90
19348;DHT22;9810;52.480;9.806;2022-10-31T03:07:11;12.50;99.90
19348;DHT22;9810;52.480;9.806;2022-10-31T03:09:46;12.30;99.90
19348;DHT22;9810;52.480;9.806;2022-10-31T03:12:25;12.30;99.90
19348;DHT22;9810;52.480;9.806;2022-10-31T03:14:59;12.50;99.90
19348;DHT22;9810;52.480;9.806;2022-10-31T03:17:35;12.60;99.90
19348;DHT22;9810;52.480;9.806;2022-10-31T03:20:05;12.40;99.90
19348;DHT22;9810;52.480;9.806;2022-10-31T03:22:34;12.30;99.90
19348;DHT22;9810;52.480;9.806;2022-10-31T03:25:04;12.10;99.90
19348;DHT22;9810;52.480;9.806;2022-10-31T03:27:34;11.90;99.90
19348;DHT22;9810;52.480;9.806;2022-10-31T03:30:05;11.90;99.90
19348;DHT22;9810;52.480;9.806;2022-10-31T03:32:38;12.10;99.90
19348;DHT22;9810;52.480;9.806;2022-10-31T03:35:08;11.90;99.90
19348;DHT22;9810;52.480;9.806;2022-10-31T03:37:37;11.70;99.90
19348;DHT22;9810;52.480;9.806;2022-10-31T03:40:08;11.70;99.90
19348;DHT22;9810;52.480;9.806;2022-10-31T03:42:39;11.60;99.90
19348;DHT22;9810;52.480;9.806;2022-10-31T03:45:10;11.50;99.90
19348;DHT22;9810;52.480;9.806;2022-10-31T03:47:40;11.40;99.90
19348;DHT22;9810;52.480;9.806;2022-10-31T03:50:10;11.20;99.90
19348;DHT22;9810;52.480;9.806;2022-10-31T03:52:42;11.20;99.90
19348;DHT22;9810;52.480;9.806;2022-10-31T03:55:17;11.00;99.90
19348;DHT22;9810;52.480;9.806;2022-10-31T03:57:51;11.00;99.90
19348;DHT22;9810;52.480;9.806;2022-10-31T04:00:20;11.20;99.90
19348;DHT22;9810;52.480;9.806;2022-10-31T04:02:53;11.40;99.90
19348;DHT22;9810;52.480;9.806;2022-10-31T04:05:21;11.20;99.90
19348;DHT22;9810;52.480;9.806;2022-10-31T04:07:51;11.20;99.90
19348;DHT22;9810;52.480;9.806;2022-10-31T04:10:21;11.20;99.90
19348;DHT22;9810;52.480;9.806;2022-10-31T04:12:52;10.90;99.90
19348;DHT22;9810;52.480;9.806;2022-10-31T04:15:22;10.80;99.90
19348;DHT22;9810;52.480;9.806;2022-10-31T04:17:54;10.90;99.90
19348;DHT22;9810;52.480;9.806;2022-10-31T04:20:29;10.80;99.90
19348;DHT22;9810;52.480;9.806;2022-10-31T04:22:57;10.80;99.90
19348;DHT22;9810;52.480;9.806;2022-10-31T04:25:24;10.50;99.90
19348;DHT22;9810;52.480;9.806;2022-10-31T04:27:51;10.50;99.90
19348;DHT22;9810;52.480;9.806;2022-10-31T04:30:18;10.40;99.90
19348;DHT22;9810;52.480;9.806;2022-10-31T04:32:45;10.60;99.90
19348;DHT22;9810;52.480;9.806;2022-10-31T04:35:14;10.70;99.90
19348;DHT22;9810;52.480;9.806;2022-10-31T04:37:41;10.80;99.90
19348;DHT22;9810;52.480;9.806;2022-10-31T04:40:09;10.60;99.90
19348;DHT22;9810;52.480;9.806;2022-10-31T04:42:37;10.40;99.90
19348;DHT22;9810;52.480;9.806;2022-10-31T04:45:04;10.50;99.90
19348;DHT22;9810;52.480;9.806;2022-10-31T04:47:32;10.60;99.90
19348;DHT22;9810;52.480;9.806;2022-10-31T04:50:00;10.40;99.90
19348;DHT22;9810;52.480;9.806;2022-10-31T04:52:29;10.00;99.90
19348;DHT22;9810;52.480;9.806;2022-10-31T04:54:56;9.90;99.90
19348;DHT22;9810;52.480;9.806;2022-10-31T04:57:23;10.00;99.90
19348;DHT22;9810;52.480;9.806;2022-10-31T04:59:50;10.00;99.90
19348;DHT22;9810;52.480;9.806;2022-10-31T05:02:17;10.10;99.90
19348;DHT22;9810;52.480;9.806;2022-10-31T05:04:44;10.30;99.90
19348;DHT22;9810;52.480;9.806;2022-10-31T05:07:11;10.10;99.90
19348;DHT22;9810;52.480;9.806;2022-10-31T05:09:40;9.90;99.90
19348;DHT22;9810;52.480;9.806;2022-10-31T05:12:07;9.80;99.90
19348;DHT22;9810;52.480;9.806;2022-10-31T05:14:34;9.90;99.90
19348;DHT22;9810;52.480;9.806;2022-10-31T05:17:02;9.70;99.90
19348;DHT22;9810;52.480;9.806;2022-10-31T05:19:29;9.80;99.90
19348;DHT22;9810;52.480;9.806;2022-10-31T05:21:57;9.60;99.90
19348;DHT22;9810;52.480;9.806;2022-10-31T05:24:24;9.60;99.90
19348;DHT22;9810;52.480;9.806;2022-10-31T05:26:54;9.80;99.90
19348;DHT22;9810;52.480;9.806;2022-10-31T05:29:21;10.00;99.90
19348;DHT22;9810;52.480;9.806;2022-10-31T05:31:49;10.00;99.90
19348;DHT22;9810;52.480;9.806;2022-10-31T05:34:16;9.90;99.90
19348;DHT22;9810;52.480;9.806;2022-10-31T05:36:43;9.60;99.90
19348;DHT22;9810;52.480;9.806;2022-10-31T05:39:10;9.70;99.90
19348;DHT22;9810;52.480;9.806;2022-10-31T05:41:38;9.80;99.90
19348;DHT22;9810;52.480;9.806;2022-10-31T05:44:07;10.00;99.90
19348;DHT22;9810;52.480;9.806;2022-10-31T05:46:34;9.90;99.90
19348;DHT22;9810;52.480;9.806;2022-10-31T05:49:01;9.90;99.90
19348;DHT22;9810;52.480;9.806;2022-10-31T05:51:28;9.80;99.90
19348;DHT22;9810;52.480;9.806;2022-10-31T05:53:56;9.70;99.90
19348;DHT22;9810;52.480;9.806;2022-10-31T05:56:23;9.60;99.90
19348;DHT22;9810;52.480;9.806;2022-10-31T05:58:50;9.80;99.90
19348;DHT22;9810;52.480;9.806;2022-10-31T06:01:19;9.90;99.90
19348;DHT22;9810;52.480;9.806;2022-10-31T06:03:46;10.00;99.90
19348;DHT22;9810;52.480;9.806;2022-10-31T06:06:13;9.80;99.90
19348;DHT22;9810;52.480;9.806;2022-10-31T06:08:40;9.70;99.90
19348;DHT22;9810;52.480;9.806;2022-10-31T06:11:08;9.90;99.90
19348;DHT22;9810;52.480;9.806;2022-10-31T06:13:35;9.90;99.90
19348;DHT22;9810;52.480;9.806;2022-10-31T06:16:02;9.70;99.90
19348;DHT22;9810;52.480;9.806;2022-10-31T06:18:31;9.50;99.90
19348;DHT22;9810;52.480;9.806;2022-10-31T06:21:00;9.40;99.90
19348;DHT22;9810;52.480;9.806;2022-10-31T06:23:28;9.40;99.90
19348;DHT22;9810;52.480;9.806;2022-10-31T06:25:58;9.40;99.90
19348;DHT22;9810;52.480;9.806;2022-10-31T06:28:25;9.30;99.90
19348;DHT22;9810;52.480;9.806;2022-10-31T06:30:52;9.20;99.90
19348;DHT22;9810;52.480;9.806;2022-10-31T06:33:22;9.30;99.90
19348;DHT22;9810;52.480;9.806;2022-10-31T06:35:52;9.20;99.90
19348;DHT22;9810;52.480;9.806;2022-10-31T06:38:19;9.10;99.90
19348;DHT22;9810;52.480;9.806;2022-10-31T06:40:46;9.10;99.90
19348;DHT22;9810;52.480;9.806;2022-10-31T06:43:14;9.10;99.90
19348;DHT22;9810;52.480;9.806;2022-10-31T06:45:41;9.20;99.90
19348;DHT22;9810;52.480;9.806;2022-10-31T06:48:08;9.30;99.90
19348;DHT22;9810;52.480;9.806;2022-10-31T06:50:36;9.40;99.90
19348;DHT22;9810;52.480;9.806;2022-10-31T06:53:05;9.40;99.90
19348;DHT22;9810;52.480;9.806;2022-10-31T06:55:33;9.40;99.90
19348;DHT22;9810;52.480;9.806;2022-10-31T06:58:01;9.50;99.90
19348;DHT22;9810;52.480;9.806;2022-10-31T07:00:29;9.70;99.90
19348;DHT22;9810;52.480;9.806;2022-10-31T07:02:58;9.60;99.90
19348;DHT22;9810;52.480;9.806;2022-10-31T07:05:27;9.80;99.90
19348;DHT22;9810;52.480;9.806;2022-10-31T07:11:21;10.10;99.90
19348;DHT22;9810;52.480;9.806;2022-10-31T07:13:50;10.30;99.90
19348;DHT22;9810;52.480;9.806;2022-10-31T07:16:19;10.40;99.90
19348;DHT22;9810;52.480;9.806;2022-10-31T07:18:54;10.50;99.90
19348;DHT22;9810;52.480;9.806;2022-10-31T07:21:21;10.60;99.90
19348;DHT22;9810;52.480;9.806;2022-10-31T07:23:51;10.80;99.90
19348;DHT22;9810;52.480;9.806;2022-10-31T07:26:18;10.90;99.90
19348;DHT22;9810;52.480;9.806;2022-10-31T07:28:47;11.00;99.90
19348;DHT22;9810;52.480;9.806;2022-10-31T07:31:14;11.10;99.90
19348;DHT22;9810;52.480;9.806;2022-10-31T07:33:44;11.10;99.90
19348;DHT22;9810;52.480;9.806;2022-10-31T07:36:11;11.30;99.90
19348;DHT22;9810;52.480;9.806;2022-10-31T07:38:39;11.50;99.90
19348;DHT22;9810;52.480;9.806;2022-10-31T07:41:06;11.70;99.90
19348;DHT22;9810;52.480;9.806;2022-10-31T07:43:34;11.90;99.90
19348;DHT22;9810;52.480;9.806;2022-10-31T07:46:03;12.10;99.90
19348;DHT22;9810;52.480;9.806;2022-10-31T07:48:51;12.00;99.90
19348;DHT22;9810;52.480;9.806;2022-10-31T07:51:23;12.00;99.90
19348;DHT22;9810;52.480;9.806;2022-10-31T07:53:50;12.40;99.90
19348;DHT22;9810;52.480;9.806;2022-10-31T07:56:18;12.50;99.90
19348;DHT22;9810;52.480;9.806;2022-10-31T07:58:45;12.50;99.90
19348;DHT22;9810;52.480;9.806;2022-10-31T08:01:14;12.10;99.90
19348;DHT22;9810;52.480;9.806;2022-10-31T08:03:46;12.00;99.90
19348;DHT22;9810;52.480;9.806;2022-10-31T08:06:14;12.20;99.90
19348;DHT22;9810;52.480;9.806;2022-10-31T08:08:45;12.10;99.90
19348;DHT22;9810;52.480;9.806;2022-10-31T08:11:12;12.40;99.90
19348;DHT22;9810;52.480;9.806;2022-10-31T08:13:39;12.70;99.90
19348;DHT22;9810;52.480;9.806;2022-10-31T08:16:08;13.00;99.90
19348;DHT22;9810;52.480;9.806;2022-10-31T08:18:37;13.50;99.90
19348;DHT22;9810;52.480;9.806;2022-10-31T08:21:04;14.00;99.90
19348;DHT22;9810;52.480;9.806;2022-10-31T08:23:32;15.00;99.90
19348;DHT22;9810;52.480;9.806;2022-10-31T08:26:00;15.40;99.90
19348;DHT22;9810;52.480;9.806;2022-10-31T08:28:27;15.90;99.90
19348;DHT22;9810;52.480;9.806;2022-10-31T08:30:54;15.40;99.90
19348;DHT22;9810;52.480;9.806;2022-10-31T08:33:24;15.60;99.90
19348;DHT22;9810;52.480;9.806;2022-10-31T08:35:54;15.90;99.90
19348;DHT22;9810;52.480;9.806;2022-10-31T08:38:22;16.50;99.90
19348;DHT22;9810;52.480;9.806;2022-10-31T08:40:50;17.60;99.90
19348;DHT22;9810;52.480;9.806;2022-10-31T08:43:18;18.50;99.90
19348;DHT22;9810;52.480;9.806;2022-10-31T08:45:48;18.90;99.90
19348;DHT22;9810;52.480;9.806;2022-10-31T08:48:16;18.50;99.90
19348;DHT22;9810;52.480;9.806;2022-10-31T08:50:44;18.10;99.90
19348;DHT22;9810;52.480;9.806;2022-10-31T08:53:17;18.40;99.90
19348;DHT22;9810;52.480;9.806;2022-10-31T08:55:46;18.20;99.90
19348;DHT22;9810;52.480;9.806;2022-10-31T08:58:16;18.00;99.90
19348;DHT22;9810;52.480;9.806;2022-10-31T09:00:47;18.30;99.90
19348;DHT22;9810;52.480;9.806;2022-10-31T09:03:16;19.00;99.90
19348;DHT22;9810;52.480;9.806;2022-10-31T09:05:46;20.10;99.90
19348;DHT22;9810;52.480;9.806;2022-10-31T09:08:16;20.90;99.90
19348;DHT22;9810;52.480;9.806;2022-10-31T09:10:44;21.20;99.90
19348;DHT22;9810;52.480;9.806;2022-10-31T09:13:14;21.60;99.90
19348;DHT22;9810;52.480;9.806;2022-10-31T09:16:15;20.80;99.90
19348;DHT22;9810;52.480;9.806;2022-10-31T09:19:30;20.70;99.90
19348;DHT22;9810;52.480;9.806;2022-10-31T10:25:39;18.80;99.90
19348;DHT22;9810;52.480;9.806;2022-10-31T11:06:02;17.50;99.90
19348;DHT22;9810;52.480;9.806;2022-10-31T11:22:31;17.20;99.90
19348;DHT22;9810;52.480;9.806;2022-10-31T11:25:32;17.50;99.90
19348;DHT22;9810;52.480;9.806;2022-10-31T13:09:54;17.30;99.90
19348;DHT22;9810;52.480;9.806;2022-10-31T13:12:31;17.30;99.90
19348;DHT22;9810;52.480;9.806;2022-10-31T13:15:05;17.10;99.90
19348;DHT22;9810;52.480;9.806;2022-10-31T13:17:43;16.70;99.90
19348;DHT22;9810;52.480;9.806;2022-10-31T13:20:20;16.50;99.90
19348;DHT22;9810;52.480;9.806;2022-10-31T13:22:51;16.60;99.90
19348;DHT22;9810;52.480;9.806;2022-10-31T13:25:23;16.80;99.90
19348;DHT22;9810;52.480;9.806;2022-10-31T13:27:55;16.60;99.90
19348;DHT22;9810;52.480;9.806;2022-10-31T13:30:27;16.60;99.90
19348;DHT22;9810;52.480;9.806;2022-10-31T13:33:01;16.40;99.90
19348;DHT22;9810;52.480;9.806;2022-10-31T13:35:35;16.30;99.90
19348;DHT22;9810;52.480;9.806;2022-10-31T13:38:19;16.30;99.90
19348;DHT22;9810;52.480;9.806;2022-10-31T13:40:56;16.30;99.90
19348;DHT22;9810;52.480;9.806;2022-10-31T13:43:31;16.40;99.90
19348;DHT22;9810;52.480;9.806;2022-10-31T13:46:00;16.50;99.90
19348;DHT22;9810;52.480;9.806;2022-10-31T13:48:36;16.50;99.90
19348;DHT22;9810;52.480;9.806;2022-10-31T13:51:07;16.40;99.90
19348;DHT22;9810;52.480;9.806;2022-10-31T13:53:42;16.60;99.90
19348;DHT22;9810;52.480;9.806;2022-10-31T13:56:20;16.60;99.90
19348;DHT22;9810;52.480;9.806;2022-10-31T13:59:00;16.40;99.90
19348;DHT22;9810;52.480;9.806;2022-10-31T14:01:33;16.30;99.90
19348;DHT22;9810;52.480;9.806;2022-10-31T14:04:04;16.10;99.90
19348;DHT22;9810;52.480;9.806;2022-10-31T14:06:48;16.20;99.90
19348;DHT22;9810;52.480;9.806;2022-10-31T14:09:32;16.10;99.90
19348;DHT22;9810;52.480;9.806;2022-10-31T14:12:06;16.20;99.90
19348;DHT22;9810;52.480;9.806;2022-10-31T14:14:49;16.20;99.90
19348;DHT22;9810;52.480;9.806;2022-10-31T14:17:23;16.20;99.90
19348;DHT22;9810;52.480;9.806;2022-10-31T14:19:59;16.10;99.90
19348;DHT22;9810;52.480;9.806;2022-10-31T14:22:34;16.00;99.90
19348;DHT22;9810;52.480;9.806;2022-10-31T14:25:25;16.10;99.90
19348;DHT22;9810;52.480;9.806;2022-10-31T14:27:54;16.00;99.90
19348;DHT22;9810;52.480;9.806;2022-10-31T14:30:24;16.10;99.90
19348;DHT22;9810;52.480;9.806;2022-10-31T14:32:57;16.10;99.90
19348;DHT22;9810;52.480;9.806;2022-10-31T14:35:29;16.00;99.90
19348;DHT22;9810;52.480;9.806;2022-10-31T14:38:27;16.10;99.90
19348;DHT22;9810;52.480;9.806;2022-10-31T14:41:22;16.10;99.90
19348;DHT22;9810;52.480;9.806;2022-10-31T14:46:54;16.10;99.90
19348;DHT22;9810;52.480;9.806;2022-10-31T14:49:45;15.80;99.90
19348;DHT22;9810;52.480;9.806;2022-10-31T14:52:15;15.80;99.90
19348;DHT22;9810;52.480;9.806;2022-10-31T14:54:45;15.80;99.90
19348;DHT22;9810;52.480;9.806;2022-10-31T14:57:16;15.80;99.90
19348;DHT22;9810;52.480;9.806;2022-10-31T14:59:49;15.80;99.90
19348;DHT22;9810;52.480;9.806;2022-10-31T15:02:22;15.50;99.90
19348;DHT22;9810;52.480;9.806;2022-10-31T15:04:51;15.20;99.90
19348;DHT22;9810;52.480;9.806;2022-10-31T15:07:21;15.20;99.90
19348;DHT22;9810;52.480;9.806;2022-10-31T15:09:59;15.30;99.90
19348;DHT22;9810;52.480;9.806;2022-10-31T15:12:28;15.50;99.90
19348;DHT22;9810;52.480;9.806;2022-10-31T15:14:57;15.40;99.90
19348;DHT22;9810;52.480;9.806;2022-10-31T15:17:30;15.20;99.90
19348;DHT22;9810;52.480;9.806;2022-10-31T15:19:58;15.10;99.90
19348;DHT22;9810;52.480;9.806;2022-10-31T15:22:56;15.30;99.90
19348;DHT22;9810;52.480;9.806;2022-10-31T15:26:20;15.10;99.90
19348;DHT22;9810;52.480;9.806;2022-10-31T15:35:36;14.70;99.90
19348;DHT22;9810;52.480;9.806;2022-10-31T15:38:03;14.60;99.90
19348;DHT22;9810;52.480;9.806;2022-10-31T15:40:32;14.70;99.90
19348;DHT22;9810;52.480;9.806;2022-10-31T15:43:03;14.70;99.90
19348;DHT22;9810;52.480;9.806;2022-10-31T15:45:34;14.60;99.90
19348;DHT22;9810;52.480;9.806;2022-10-31T15:48:24;14.60;99.90
19348;DHT22;9810;52.480;9.806;2022-10-31T15:51:13;14.60;99.90
19348;DHT22;9810;52.480;9.806;2022-10-31T15:53:49;14.80;99.90
19348;DHT22;9810;52.480;9.806;2022-10-31T15:56:20;14.70;99.90
19348;DHT22;9810;52.480;9.806;2022-10-31T15:58:49;14.80;99.90
19348;DHT22;9810;52.480;9.806;2022-10-31T16:01:22;14.70;99.90
19348;DHT22;9810;52.480;9.806;2022-10-31T16:04:19;14.40;99.90
19348;DHT22;9810;52.480;9.806;2022-10-31T16:06:59;14.70;99.90
19348;DHT22;9810;52.480;9.806;2022-10-31T16:09:27;14.50;99.90
19348;DHT22;9810;52.480;9.806;2022-10-31T16:11:56;14.50;99.90
19348;DHT22;9810;52.480;9.806;2022-10-31T16:14:27;14.70;99.90
19348;DHT22;9810;52.480;9.806;2022-10-31T16:16:58;14.70;99.90
19348;DHT22;9810;52.480;9.806;2022-10-31T16:19:32;14.70;99.90
19348;DHT22;9810;52.480;9.806;2022-10-31T16:22:20;14.60;99.90
19348;DHT22;9810;52.480;9.806;2022-10-31T16:24:52;14.60;99.90
19348;DHT22;9810;52.480;9.806;2022-10-31T16:27:21;14.50;99.90
19348;DHT22;9810;52.480;9.806;2022-10-31T16:29:52;14.50;99.90
19348;DHT22;9810;52.480;9.806;2022-10-31T16:32:28;14.30;99.90
19348;DHT22;9810;52.480;9.806;2022-10-31T16:35:18;14.30;99.90
19348;DHT22;9810;52.480;9.806;2022-10-31T16:37:47;14.40;99.90
19348;DHT22;9810;52.480;9.806;2022-10-31T16:40:14;14.40;99.90
19348;DHT22;9810;52.480;9.806;2022-10-31T16:42:45;14.10;99.90
19348;DHT22;9810;52.480;9.806;2022-10-31T16:45:16;14.20;99.90
19348;DHT22;9810;52.480;9.806;2022-10-31T16:47:44;14.30;99.90
19348;DHT22;9810;52.480;9.806;2022-10-31T16:50:16;14.40;99.90
19348;DHT22;9810;52.480;9.806;2022-10-31T16:52:44;14.20;99.90
19348;DHT22;9810;52.480;9.806;2022-10-31T16:55:15;14.00;99.90
19348;DHT22;9810;52.480;9.806;2022-10-31T16:57:45;13.80;99.90
19348;DHT22;9810;52.480;9.806;2022-10-31T17:00:16;13.90;99.90
19348;DHT22;9810;52.480;9.806;2022-10-31T17:02:45;13.80;99.90
19348;DHT22;9810;52.480;9.806;2022-10-31T17:05:13;13.90;99.90
19348;DHT22;9810;52.480;9.806;2022-10-31T17:07:41;14.00;99.90
19348;DHT22;9810;52.480;9.806;2022-10-31T17:10:14;13.90;99.90
19348;DHT22;9810;52.480;9.806;2022-10-31T17:12:44;14.10;99.90
19348;DHT22;9810;52.480;9.806;2022-10-31T17:15:16;14.30;99.90
19348;DHT22;9810;52.480;9.806;2022-10-31T17:17:44;14.40;99.90
19348;DHT22;9810;52.480;9.806;2022-10-31T17:20:21;14.40;99.90
19348;DHT22;9810;52.480;9.806;2022-10-31T17:22:48;14.50;99.90
19348;DHT22;9810;52.480;9.806;2022-10-31T17:25:18;14.40;99.90
19348;DHT22;9810;52.480;9.806;2022-10-31T17:27:47;14.40;99.90
19348;DHT22;9810;52.480;9.806;2022-10-31T17:30:14;14.30;99.90
19348;DHT22;9810;52.480;9.806;2022-10-31T17:32:44;14.40;99.90
19348;DHT22;9810;52.480;9.806;2022-10-31T17:35:12;14.40;99.90
19348;DHT22;9810;52.480;9.806;2022-10-31T17:37:40;14.40;99.90
19348;DHT22;9810;52.480;9.806;2022-10-31T17:40:08;14.40;99.90
19348;DHT22;9810;52.480;9.806;2022-10-31T17:42:38;14.50;99.90
19348;DHT22;9810;52.480;9.806;2022-10-31T17:45:06;14.40;99.90
19348;DHT22;9810;52.480;9.806;2022-10-31T17:47:34;14.50;99.90
19348;DHT22;9810;52.480;9.806;2022-10-31T17:50:01;14.40;99.90
19348;DHT22;9810;52.480;9.806;2022-10-31T17:52:30;14.50;99.90
19348;DHT22;9810;52.480;9.806;2022-10-31T17:54:57;14.50;99.90
19348;DHT22;9810;52.480;9.806;2022-10-31T17:57:34;14.50;99.90
19348;DHT22;9810;52.480;9.806;2022-10-31T18:00:05;14.60;99.90
19348;DHT22;9810;52.480;9.806;2022-10-31T18:02:33;14.60;99.90
19348;DHT22;9810;52.480;9.806;2022-10-31T18:05:00;14.60;99.90
19348;DHT22;9810;52.480;9.806;2022-10-31T18:07:28;14.70;99.90
19348;DHT22;9810;52.480;9.806;2022-10-31T18:09:55;14.50;99.90
19348;DHT22;9810;52.480;9.806;2022-10-31T18:12:25;14.50;99.90
19348;DHT22;9810;52.480;9.806;2022-10-31T18:14:53;14.40;99.90
19348;DHT22;9810;52.480;9.806;2022-10-31T18:17:22;14.20;99.90
19348;DHT22;9810;52.480;9.806;2022-10-31T18:19:49;14.10;99.90
19348;DHT22;9810;52.480;9.806;2022-10-31T18:22:16;14.20;99.90
19348;DHT22;9810;52.480;9.806;2022-10-31T18:24:43;14.30;99.90
19348;DHT22;9810;52.480;9.806;2022-10-31T18:27:10;14.40;99.90
19348;DHT22;9810;52.480;9.806;2022-10-31T18:29:37;14.50;99.90
19348;DHT22;9810;52.480;9.806;2022-10-31T18:32:04;14.40;99.90
19348;DHT22;9810;52.480;9.806;2022-10-31T18:34:33;14.40;99.90
19348;DHT22;9810;52.480;9.806;2022-10-31T18:37:00;14.50;99.90
19348;DHT22;9810;52.480;9.806;2022-10-31T18:39:27;14.50;99.90
19348;DHT22;9810;52.480;9.806;2022-10-31T18:41:54;14.50;99.90
19348;DHT22;9810;52.480;9.806;2022-10-31T18:44:21;14.50;99.90
19348;DHT22;9810;52.480;9.806;2022-10-31T18:46:48;14.50;99.90
19348;DHT22;9810;52.480;9.806;2022-10-31T18:49:15;14.50;99.90
19348;DHT22;9810;52.480;9.806;2022-10-31T18:51:48;14.50;99.90
19348;DHT22;9810;52.480;9.806;2022-10-31T18:54:15;14.50;99.90
19348;DHT22;9810;52.480;9.806;2022-10-31T18:56:43;14.50;99.90
19348;DHT22;9810;52.480;9.806;2022-10-31T18:59:10;14.50;99.90
19348;DHT22;9810;52.480;9.806;2022-10-31T19:01:37;14.50;99.90
19348;DHT22;9810;52.480;9.806;2022-10-31T19:04:04;14.40;99.90
19348;DHT22;9810;52.480;9.806;2022-10-31T19:06:31;14.40;99.90
19348;DHT22;9810;52.480;9.806;2022-10-31T19:09:04;14.40;99.90
19348;DHT22;9810;52.480;9.806;2022-10-31T19:11:33;14.40;99.90
19348;DHT22;9810;52.480;9.806;2022-10-31T19:14:00;14.40;99.90
19348;DHT22;9810;52.480;9.806;2022-10-31T19:16:28;14.30;99.90
19348;DHT22;9810;52.480;9.806;2022-10-31T19:18:56;14.40;99.90
19348;DHT22;9810;52.480;9.806;2022-10-31T19:21:24;14.30;99.90
19348;DHT22;9810;52.480;9.806;2022-10-31T19:23:52;14.40;99.90
19348;DHT22;9810;52.480;9.806;2022-10-31T19:26:22;14.40;99.90
19348;DHT22;9810;52.480;9.806;2022-10-31T19:28:50;14.50;99.90
19348;DHT22;9810;52.480;9.806;2022-10-31T19:31:17;14.40;99.90
19348;DHT22;9810;52.480;9.806;2022-10-31T19:33:44;14.50;99.90
19348;DHT22;9810;52.480;9.806;2022-10-31T19:36:13;14.40;99.90
19348;DHT22;9810;52.480;9.806;2022-10-31T19:38:41;14.50;99.90
19348;DHT22;9810;52.480;9.806;2022-10-31T19:41:10;14.50;99.90
19348;DHT22;9810;52.480;9.806;2022-10-31T19:43:39;14.50;99.90
19348;DHT22;9810;52.480;9.806;2022-10-31T19:46:07;14.50;99.90
19348;DHT22;9810;52.480;9.806;2022-10-31T19:48:35;14.50;99.90
19348;DHT22;9810;52.480;9.806;2022-10-31T19:51:04;14.50;99.90
19348;DHT22;9810;52.480;9.806;2022-10-31T19:53:32;14.30;99.90
19348;DHT22;9810;52.480;9.806;2022-10-31T19:55:59;14.30;99.90
19348;DHT22;9810;52.480;9.806;2022-10-31T19:58:27;14.30;99.90
19348;DHT22;9810;52.480;9.806;2022-10-31T20:00:55;14.30;99.90